Terminal Aerodrome Forecast
Issued by NWS

Home | Current Version | Previous Version | Text Only | Print | Product List | Glossary On
Versions: 1 2 3 4 5 6 7 8 9 10 11 12 13 14 15 16 17 18 19 20 21 22 23 24 25 26 27 28
000
FTUS45 KGJT 281730
TAFCNY
TAF
KCNY 281730Z 2818/2918 11007KT P6SM VCSH BKN110 OVC200
     FM282000 18005KT P6SM VCTS SCT100CB BKN150
      TEMPO 2822/2902 VRB10G20KT -TSRA BKN080CB
     FM290200 27010KT P6SM VCSH OVC100
     FM290600 13007KT P6SM SCT100 BKN150
     FM291200 14005KT P6SM FEW100 BKN150=

USA.gov is the U.S. government's official web portal to all federal, state and local government web resources and services.